Time;durP1;ratioP1;P1;durP2;ratioP2;P2;SDS_P1;SDS_P2;PMS_P1;PMS_P2;Temp;Humidity;BMP_temperature;BMP_pressure;BME280_temperature;BME280_humidity;BME280_pressure;Samples;Min_cycle;Max_cycle;Signal;HPM_P1;HPM_P2
2023/04/14 00:00:33;;;;;;;10.73;3.15;;;;;;;;;;4888798;28;100145;-80
2023/04/14 00:03:00;;;;;;;10.48;3.55;;;;;;;;;;4888588;28;100263;-79
2023/04/14 00:05:27;;;;;;;5.90;2.50;;;;;;;;;;4888902;28;100167;-79
2023/04/14 00:07:53;;;;;;;5.10;2.92;;;;;;;;;;4889168;28;99950;-79
2023/04/14 00:10:20;;;;;;;6.55;2.47;;;;;;;;;;4888031;28;99670;-79
2023/04/14 00:12:46;;;;;;;6.40;3.22;;;;;;;;;;4888575;28;100217;-79
2023/04/14 00:15:13;;;;;;;11.35;3.50;;;;;;;;;;4888325;28;99032;-79
2023/04/14 00:17:39;;;;;;;14.70;3.33;;;;;;;;;;4888135;28;98498;-79
2023/04/14 00:20:07;;;;;;;17.02;4.53;;;;;;;;;;4891939;28;99081;-79
2023/04/14 00:22:33;;;;;;;3.25;2.63;;;;;;;;;;4888248;28;100182;-78
2023/04/14 00:25:00;;;;;;;9.82;3.28;;;;;;;;;;4887693;28;100081;-79
2023/04/14 00:27:26;;;;;;;12.07;4.05;;;;;;;;;;4888382;28;100665;-79
2023/04/14 00:29:53;;;;;;;5.38;3.58;;;;;;;;;;4887655;28;101852;-78
2023/04/14 00:32:19;;;;;;;8.02;3.53;;;;;;;;;;4887919;28;98770;-80
2023/04/14 00:34:46;;;;;;;6.80;3.45;;;;;;;;;;4888824;28;99154;-79
2023/04/14 00:37:12;;;;;;;11.10;3.22;;;;;;;;;;4887029;28;100266;-80
2023/04/14 00:39:39;;;;;;;8.90;3.30;;;;;;;;;;4887949;28;99305;-79
2023/04/14 00:42:05;;;;;;;13.23;3.22;;;;;;;;;;4892072;28;99308;-79
2023/04/14 00:44:31;;;;;;;5.15;2.78;;;;;;;;;;4888081;28;100034;-79
2023/04/14 00:46:59;;;;;;;4.43;3.05;;;;;;;;;;4886660;28;99847;-79
2023/04/14 00:49:26;;;;;;;10.23;3.15;;;;;;;;;;4887761;28;99893;-79
2023/04/14 00:51:53;;;;;;;7.93;3.22;;;;;;;;;;4887394;28;99476;-79
2023/04/14 00:54:19;;;;;;;6.72;3.60;;;;;;;;;;4888115;28;100154;-79
2023/04/14 00:56:46;;;;;;;8.70;3.53;;;;;;;;;;4888553;28;99622;-79
2023/04/14 00:59:13;;;;;;;9.07;4.57;;;;;;;;;;4888193;28;98922;-79
2023/04/14 01:01:40;;;;;;;9.65;3.70;;;;;;;;;;4887666;28;98705;-78
2023/04/14 01:04:07;;;;;;;7.78;4.43;;;;;;;;;;4891650;28;99350;-79
2023/04/14 01:06:35;;;;;;;11.50;4.97;;;;;;;;;;4887902;28;99853;-79
2023/04/14 01:09:02;;;;;;;8.38;4.35;;;;;;;;;;4888334;28;99539;-78
2023/04/14 01:11:47;;;;;;;15.32;5.30;;;;;;;;;;4887981;28;100314;-79
2023/04/14 01:14:26;;;;;;;11.65;5.00;;;;;;;;;;4885603;28;99944;-79
2023/04/14 01:16:57;;;;;;;10.10;5.35;;;;;;;;;;4888509;28;99105;-79
2023/04/14 01:19:23;;;;;;;11.55;5.50;;;;;;;;;;4886506;28;101696;-79
2023/04/14 01:21:55;;;;;;;12.18;5.15;;;;;;;;;;4887801;28;99578;-79
2023/04/14 01:24:29;;;;;;;15.05;6.70;;;;;;;;;;4889624;28;101554;-80
2023/04/14 01:27:01;;;;;;;10.95;6.05;;;;;;;;;;4888942;28;100031;-79
2023/04/14 01:29:28;;;;;;;14.02;7.05;;;;;;;;;;4889972;28;101976;-79
2023/04/14 01:31:57;;;;;;;18.20;6.28;;;;;;;;;;4890570;28;99917;-79
2023/04/14 01:34:30;;;;;;;11.48;5.50;;;;;;;;;;4890496;28;98923;-79
2023/04/14 01:37:00;;;;;;;16.75;5.65;;;;;;;;;;4891160;28;98601;-79
2023/04/14 01:39:31;;;;;;;15.15;5.80;;;;;;;;;;4890629;28;100042;-77
2023/04/14 01:41:58;;;;;;;8.95;5.70;;;;;;;;;;4889512;28;102636;-77
2023/04/14 01:44:25;;;;;;;13.70;5.95;;;;;;;;;;4889791;28;101927;-78
2023/04/14 01:46:56;;;;;;;9.30;5.30;;;;;;;;;;4893125;28;100928;-78
2023/04/14 01:49:23;;;;;;;7.03;5.28;;;;;;;;;;4888624;28;101469;-79
2023/04/14 01:51:50;;;;;;;10.40;5.93;;;;;;;;;;4889522;28;99239;-79
2023/04/14 01:54:17;;;;;;;5.97;5.10;;;;;;;;;;4889091;28;101681;-78
2023/04/14 01:56:45;;;;;;;8.48;5.68;;;;;;;;;;4889771;28;101112;-78
2023/04/14 01:59:12;;;;;;;9.80;5.25;;;;;;;;;;4889886;28;99025;-78
2023/04/14 02:01:39;;;;;;;7.50;5.82;;;;;;;;;;4905490;28;99154;-80
2023/04/14 02:04:07;;;;;;;14.57;5.88;;;;;;;;;;4889888;28;99835;-77
2023/04/14 02:06:35;;;;;;;9.07;6.15;;;;;;;;;;4890699;28;99431;-78
2023/04/14 02:09:04;;;;;;;11.40;5.55;;;;;;;;;;4908629;28;101863;-77
2023/04/14 02:11:31;;;;;;;12.52;6.05;;;;;;;;;;4905149;28;102124;-78
2023/04/14 02:13:59;;;;;;;8.93;5.80;;;;;;;;;;4890751;28;98708;-79
2023/04/14 02:16:26;;;;;;;10.52;6.57;;;;;;;;;;4888403;28;99477;-77
2023/04/14 02:18:52;;;;;;;14.88;6.07;;;;;;;;;;4905404;28;102026;-78
2023/04/14 02:21:21;;;;;;;10.88;6.15;;;;;;;;;;4890970;28;98878;-78
2023/04/14 02:23:48;;;;;;;11.25;6.60;;;;;;;;;;4890138;28;99479;-78
2023/04/14 02:26:15;;;;;;;11.48;5.50;;;;;;;;;;4890853;28;98764;-78
2023/04/14 02:29:06;;;;;;;8.98;5.82;;;;;;;;;;4890169;28;99769;-78
2023/04/14 02:31:33;;;;;;;13.48;6.45;;;;;;;;;;4893027;28;99221;-79
2023/04/14 02:34:02;;;;;;;12.27;7.25;;;;;;;;;;4890530;28;98933;-79
2023/04/14 02:36:46;;;;;;;13.95;6.15;;;;;;;;;;4888307;28;101897;-77
2023/04/14 02:39:18;;;;;;;9.80;6.85;;;;;;;;;;4889594;28;99892;-77
2023/04/14 02:41:45;;;;;;;12.70;7.13;;;;;;;;;;4882909;28;99175;-80
2023/04/14 02:44:16;;;;;;;12.60;6.40;;;;;;;;;;4890616;28;99355;-80
2023/04/14 02:46:47;;;;;;;10.80;6.32;;;;;;;;;;4889577;28;99534;-79
2023/04/14 02:49:15;;;;;;;12.13;6.22;;;;;;;;;;4889240;28;100395;-79
2023/04/14 02:51:42;;;;;;;13.38;6.43;;;;;;;;;;4889630;28;99264;-79
2023/04/14 02:54:11;;;;;;;9.65;6.43;;;;;;;;;;4891371;28;100268;-80
2023/04/14 02:56:42;;;;;;;12.25;6.35;;;;;;;;;;4889150;28;101639;-80
2023/04/14 02:59:08;;;;;;;8.02;5.88;;;;;;;;;;4889729;28;98877;-79
2023/04/14 03:01:44;;;;;;;9.15;6.68;;;;;;;;;;4888915;28;101123;-78
2023/04/14 03:04:11;;;;;;;13.80;6.93;;;;;;;;;;4890013;28;99435;-78
2023/04/14 03:06:39;;;;;;;12.10;6.57;;;;;;;;;;4883458;28;101132;-78
2023/04/14 03:09:06;;;;;;;8.52;6.20;;;;;;;;;;4885848;28;101112;-78
2023/04/14 03:11:33;;;;;;;14.48;6.05;;;;;;;;;;4885799;28;99385;-78
2023/04/14 03:14:01;;;;;;;19.90;7.47;;;;;;;;;;4884602;28;100046;-78
2023/04/14 03:16:29;;;;;;;11.13;6.63;;;;;;;;;;4875208;28;98913;-78
2023/04/14 03:18:57;;;;;;;17.73;7.10;;;;;;;;;;4887956;28;100993;-78
2023/04/14 03:21:25;;;;;;;10.18;6.78;;;;;;;;;;4887599;28;99746;-78
2023/04/14 03:23:54;;;;;;;9.23;6.45;;;;;;;;;;4888508;28;101768;-78
2023/04/14 03:26:23;;;;;;;8.95;6.88;;;;;;;;;;4887989;28;101363;-78
2023/04/14 03:28:52;;;;;;;16.70;7.68;;;;;;;;;;4887405;28;101234;-79
2023/04/14 03:31:19;;;;;;;11.38;6.63;;;;;;;;;;4888139;28;101841;-78
2023/04/14 03:33:55;;;;;;;9.25;5.90;;;;;;;;;;4887349;28;100828;-78
2023/04/14 03:36:27;;;;;;;11.60;6.28;;;;;;;;;;4891651;28;101265;-78
2023/04/14 03:38:58;;;;;;;8.35;6.60;;;;;;;;;;4888153;28;98989;-78
2023/04/14 03:41:26;;;;;;;12.32;7.50;;;;;;;;;;4903399;28;101618;-78
2023/04/14 03:43:55;;;;;;;9.80;6.07;;;;;;;;;;4887682;28;102904;-78
2023/04/14 03:46:27;;;;;;;11.68;7.72;;;;;;;;;;4887789;28;102073;-78
2023/04/14 03:48:54;;;;;;;14.20;6.57;;;;;;;;;;4886579;28;99942;-78
2023/04/14 03:51:25;;;;;;;11.20;6.75;;;;;;;;;;4887521;28;100171;-78
2023/04/14 03:53:53;;;;;;;16.42;6.63;;;;;;;;;;4887153;28;101910;-78
2023/04/14 03:56:21;;;;;;;9.25;7.50;;;;;;;;;;4888074;28;98994;-78
2023/04/14 03:58:51;;;;;;;14.35;7.00;;;;;;;;;;4892683;28;99211;-78
2023/04/14 04:01:18;;;;;;;19.20;7.25;;;;;;;;;;4889640;28;98930;-78
2023/04/14 04:03:45;;;;;;;15.30;7.32;;;;;;;;;;4888924;28;99228;-78
2023/04/14 04:06:12;;;;;;;13.40;6.63;;;;;;;;;;4889071;28;99101;-78
2023/04/14 04:08:40;;;;;;;10.43;6.60;;;;;;;;;;4887920;28;99904;-78
2023/04/14 04:11:08;;;;;;;15.55;6.88;;;;;;;;;;4885809;28;101470;-77
2023/04/14 04:13:35;;;;;;;11.82;7.70;;;;;;;;;;4887325;28;101729;-78
2023/04/14 04:16:05;;;;;;;12.98;7.15;;;;;;;;;;4886953;28;100899;-78
2023/04/14 04:18:33;;;;;;;18.10;7.55;;;;;;;;;;4888489;28;99444;-78
2023/04/14 04:21:01;;;;;;;22.95;8.35;;;;;;;;;;4891764;28;98793;-78
2023/04/14 04:23:31;;;;;;;18.27;8.00;;;;;;;;;;4886597;28;102633;-78
2023/04/14 04:25:57;;;;;;;13.07;7.47;;;;;;;;;;4889033;28;98811;-78
2023/04/14 04:28:35;;;;;;;11.15;7.85;;;;;;;;;;4903160;28;99264;-78
2023/04/14 04:31:03;;;;;;;19.48;8.35;;;;;;;;;;4886746;28;101000;-78
2023/04/14 04:33:30;;;;;;;22.73;9.27;;;;;;;;;;4902341;28;101711;-77
2023/04/14 04:35:58;;;;;;;14.93;8.88;;;;;;;;;;4887251;28;99817;-78
2023/04/14 04:38:31;;;;;;;22.08;8.70;;;;;;;;;;4886277;28;98666;-78
2023/04/14 04:40:58;;;;;;;19.15;8.75;;;;;;;;;;4886868;28;98911;-78
2023/04/14 04:43:26;;;;;;;13.30;9.05;;;;;;;;;;4889946;28;98985;-78
2023/04/14 04:45:57;;;;;;;18.05;8.93;;;;;;;;;;4886678;28;99013;-77
2023/04/14 04:48:25;;;;;;;18.20;10.20;;;;;;;;;;4887069;28;99300;-78
2023/04/14 04:50:52;;;;;;;13.27;8.85;;;;;;;;;;4888265;28;101719;-79
2023/04/14 04:53:18;;;;;;;14.77;9.02;;;;;;;;;;4883574;28;102124;-78
2023/04/14 04:55:44;;;;;;;11.63;9.95;;;;;;;;;;4887487;28;101700;-77
2023/04/14 04:58:11;;;;;;;15.40;10.18;;;;;;;;;;4886956;28;101196;-77
2023/04/14 05:00:37;;;;;;;13.65;10.23;;;;;;;;;;4885309;28;99279;-77
2023/04/14 05:03:03;;;;;;;19.23;10.05;;;;;;;;;;4886514;28;99228;-77
2023/04/14 05:05:34;;;;;;;17.67;9.35;;;;;;;;;;4889481;28;100169;-77
2023/04/14 05:08:00;;;;;;;12.68;8.98;;;;;;;;;;4877845;28;99862;-77
2023/04/14 05:10:26;;;;;;;20.77;9.68;;;;;;;;;;4883179;28;100314;-77
2023/04/14 05:12:53;;;;;;;19.75;9.10;;;;;;;;;;4887618;28;100117;-77
2023/04/14 05:15:20;;;;;;;20.65;8.95;;;;;;;;;;4885915;28;100146;-77
2023/04/14 05:17:46;;;;;;;16.30;9.60;;;;;;;;;;4887939;28;100350;-77
2023/04/14 05:20:12;;;;;;;25.85;9.60;;;;;;;;;;4887510;28;100111;-77
2023/04/14 05:22:39;;;;;;;15.40;8.50;;;;;;;;;;4886364;28;101132;-77
2023/04/14 05:25:06;;;;;;;18.42;9.48;;;;;;;;;;4887344;28;100759;-77
2023/04/14 05:27:33;;;;;;;19.40;9.48;;;;;;;;;;4888885;28;98592;-77
2023/04/14 05:29:59;;;;;;;17.48;9.65;;;;;;;;;;4887431;28;99399;-77
2023/04/14 05:32:27;;;;;;;12.85;7.88;;;;;;;;;;4875340;28;100213;-77
2023/04/14 05:34:54;;;;;;;15.80;7.95;;;;;;;;;;4885317;28;99952;-79
2023/04/14 05:37:21;;;;;;;13.40;8.10;;;;;;;;;;4887327;28;99669;-79
2023/04/14 05:39:48;;;;;;;15.93;8.38;;;;;;;;;;4888153;28;100049;-77
2023/04/14 05:42:16;;;;;;;13.70;7.95;;;;;;;;;;4886913;28;99200;-77
2023/04/14 05:44:42;;;;;;;18.95;9.23;;;;;;;;;;4886671;28;100497;-77
2023/04/14 05:47:09;;;;;;;14.32;8.25;;;;;;;;;;4888545;28;100038;-77
2023/04/14 05:49:35;;;;;;;15.45;9.00;;;;;;;;;;4886925;28;99710;-78
2023/04/14 05:52:01;;;;;;;15.77;8.52;;;;;;;;;;4886757;28;98910;-77
2023/04/14 05:54:28;;;;;;;16.02;7.03;;;;;;;;;;4885193;28;100206;-77
2023/04/14 05:56:56;;;;;;;24.55;8.60;;;;;;;;;;4887580;28;99504;-78
2023/04/14 05:59:22;;;;;;;18.35;7.75;;;;;;;;;;4886444;28;100186;-77
2023/04/14 06:01:49;;;;;;;11.68;7.15;;;;;;;;;;4885163;28;100094;-77
2023/04/14 06:04:15;;;;;;;12.38;7.20;;;;;;;;;;4886243;28;98738;-78
2023/04/14 06:06:42;;;;;;;15.13;7.25;;;;;;;;;;4885659;28;100933;-77
2023/04/14 06:09:09;;;;;;;14.98;6.40;;;;;;;;;;4890072;28;99935;-77
2023/04/14 06:11:36;;;;;;;20.17;5.88;;;;;;;;;;4885338;28;100034;-78
2023/04/14 06:14:04;;;;;;;17.58;6.22;;;;;;;;;;4882105;28;101126;-79
2023/04/14 06:16:30;;;;;;;17.92;6.85;;;;;;;;;;4888623;28;100568;-79
2023/04/14 06:18:57;;;;;;;19.15;7.10;;;;;;;;;;4888650;28;100047;-79
2023/04/14 06:21:23;;;;;;;10.20;6.55;;;;;;;;;;4889009;28;100679;-78
2023/04/14 06:23:50;;;;;;;10.35;6.10;;;;;;;;;;4886153;28;100195;-78
2023/04/14 06:26:16;;;;;;;18.17;6.68;;;;;;;;;;4889677;28;99216;-77
2023/04/14 06:28:43;;;;;;;15.23;6.45;;;;;;;;;;4890597;28;99635;-78
2023/04/14 06:31:09;;;;;;;13.80;7.80;;;;;;;;;;4892145;28;99591;-78
2023/04/14 06:33:38;;;;;;;9.60;6.50;;;;;;;;;;4883978;28;100792;-79
2023/04/14 06:36:05;;;;;;;15.18;6.25;;;;;;;;;;4886021;28;100890;-79
2023/04/14 06:38:31;;;;;;;11.63;6.85;;;;;;;;;;4889616;28;100036;-78
2023/04/14 06:40:57;;;;;;;18.88;6.07;;;;;;;;;;4887034;28;99259;-78
2023/04/14 06:43:24;;;;;;;10.30;5.47;;;;;;;;;;4888777;28;99318;-78
2023/04/14 06:45:50;;;;;;;12.02;5.40;;;;;;;;;;4890421;28;100112;-78
2023/04/14 06:48:17;;;;;;;12.68;5.90;;;;;;;;;;4888860;28;100125;-78
2023/04/14 06:50:51;;;;;;;11.30;5.57;;;;;;;;;;4888403;28;100407;-77
2023/04/14 06:53:19;;;;;;;11.32;5.18;;;;;;;;;;4893130;28;99520;-78
2023/04/14 06:56:00;;;;;;;12.38;6.53;;;;;;;;;;4890057;28;101565;-77
2023/04/14 06:58:27;;;;;;;17.02;5.22;;;;;;;;;;4888862;28;100366;-77
2023/04/14 07:00:55;;;;;;;12.82;4.97;;;;;;;;;;4889541;28;100382;-77
2023/04/14 07:03:21;;;;;;;10.70;4.50;;;;;;;;;;4890055;28;101435;-78
2023/04/14 07:05:50;;;;;;;6.20;4.80;;;;;;;;;;4876462;28;99824;-78
2023/04/14 07:08:19;;;;;;;11.35;4.68;;;;;;;;;;4870526;28;99954;-78
2023/04/14 07:10:46;;;;;;;10.38;4.68;;;;;;;;;;4870853;28;100190;-77
2023/04/14 07:13:13;;;;;;;8.10;4.57;;;;;;;;;;4878730;28;100060;-78
2023/04/14 07:15:44;;;;;;;9.95;5.03;;;;;;;;;;4892374;28;99246;-78
2023/04/14 07:18:14;;;;;;;21.92;5.07;;;;;;;;;;4890735;28;100339;-78
2023/04/14 07:20:43;;;;;;;11.75;4.45;;;;;;;;;;4885993;28;98888;-77
2023/04/14 07:23:14;;;;;;;10.32;4.88;;;;;;;;;;4884409;28;99709;-78
2023/04/14 07:25:43;;;;;;;11.13;4.63;;;;;;;;;;4888598;28;99565;-77
2023/04/14 07:28:10;;;;;;;12.23;4.90;;;;;;;;;;4889467;28;101215;-79
2023/04/14 07:30:37;;;;;;;11.50;3.97;;;;;;;;;;4889415;28;100439;-77
2023/04/14 07:33:04;;;;;;;7.95;3.85;;;;;;;;;;4888454;28;98946;-77
2023/04/14 07:35:45;;;;;;;13.57;4.18;;;;;;;;;;4891490;28;99352;-77
2023/04/14 07:38:27;;;;;;;10.95;4.18;;;;;;;;;;4887897;28;101629;-77
2023/04/14 07:41:02;;;;;;;11.73;4.07;;;;;;;;;;4870805;28;99436;-77
2023/04/14 07:43:45;;;;;;;9.50;4.72;;;;;;;;;;4870034;28;98578;-77
2023/04/14 07:46:23;;;;;;;32.60;5.83;;;;;;;;;;4869618;28;99889;-77
2023/04/14 07:48:55;;;;;;;7.93;3.67;;;;;;;;;;4889485;28;100637;-78
2023/04/14 07:51:33;;;;;;;14.55;3.33;;;;;;;;;;4901169;28;100486;-79
2023/04/14 07:54:01;;;;;;;7.53;3.72;;;;;;;;;;4888451;28;99164;-79
2023/04/14 07:56:34;;;;;;;15.60;3.60;;;;;;;;;;4887742;28;99563;-79
2023/04/14 07:59:01;;;;;;;14.43;3.28;;;;;;;;;;4892421;28;100953;-78
2023/04/14 08:01:28;;;;;;;12.13;2.58;;;;;;;;;;4888129;28;100213;-78
2023/04/14 08:03:54;;;;;;;6.20;3.35;;;;;;;;;;4889192;28;101407;-78
2023/04/14 08:06:21;;;;;;;6.63;2.35;;;;;;;;;;4888722;28;99900;-79
2023/04/14 08:08:48;;;;;;;6.65;2.78;;;;;;;;;;4889929;28;100202;-78
2023/04/14 08:11:14;;;;;;;11.23;2.88;;;;;;;;;;4890139;28;100360;-78
2023/04/14 08:13:41;;;;;;;8.00;2.28;;;;;;;;;;4890122;28;99237;-78
2023/04/14 08:16:08;;;;;;;9.00;2.60;;;;;;;;;;4888546;28;100105;-78
2023/04/14 08:18:35;;;;;;;6.47;2.53;;;;;;;;;;4889755;28;99664;-78
2023/04/14 08:21:01;;;;;;;7.43;2.13;;;;;;;;;;4896061;28;100388;-79
2023/04/14 08:23:28;;;;;;;6.95;2.05;;;;;;;;;;4895128;28;99784;-79
2023/04/14 08:25:54;;;;;;;10.43;3.70;;;;;;;;;;4896774;28;100436;-78
2023/04/14 08:28:21;;;;;;;10.75;2.03;;;;;;;;;;4896637;28;99098;-79
2023/04/14 08:30:48;;;;;;;16.98;2.50;;;;;;;;;;4895238;28;99568;-78
2023/04/14 08:33:15;;;;;;;5.60;2.72;;;;;;;;;;4891334;28;100958;-78
2023/04/14 08:35:41;;;;;;;8.82;2.60;;;;;;;;;;4890207;28;99351;-79
2023/04/14 08:38:09;;;;;;;6.65;2.22;;;;;;;;;;4887764;28;101286;-79
2023/04/14 08:40:40;;;;;;;6.78;2.20;;;;;;;;;;4891571;28;99881;-79
2023/04/14 08:43:06;;;;;;;6.75;3.10;;;;;;;;;;4895397;28;101169;-79
2023/04/14 08:45:33;;;;;;;5.63;1.73;;;;;;;;;;4893217;28;98863;-79
2023/04/14 08:48:01;;;;;;;7.47;2.15;;;;;;;;;;4891622;28;100188;-79
2023/04/14 08:50:35;;;;;;;12.68;1.90;;;;;;;;;;4887663;28;100351;-79
2023/04/14 08:53:03;;;;;;;3.97;1.63;;;;;;;;;;4887353;28;99316;-79
2023/04/14 08:55:30;;;;;;;8.00;2.20;;;;;;;;;;4887390;28;99896;-79
2023/04/14 08:57:58;;;;;;;5.43;1.92;;;;;;;;;;4886896;28;99044;-77
2023/04/14 09:00:24;;;;;;;5.78;2.08;;;;;;;;;;4882191;28;99823;-78
2023/04/14 09:02:51;;;;;;;6.20;2.05;;;;;;;;;;4884871;28;98972;-77
2023/04/14 09:05:18;;;;;;;5.20;1.98;;;;;;;;;;4873828;28;100809;-78
2023/04/14 09:07:44;;;;;;;8.35;2.22;;;;;;;;;;4886230;28;101416;-77
2023/04/14 09:10:11;;;;;;;8.25;2.33;;;;;;;;;;4886345;28;100491;-78
2023/04/14 09:12:38;;;;;;;9.10;2.58;;;;;;;;;;4875495;28;99964;-78
2023/04/14 09:15:07;;;;;;;5.13;2.22;;;;;;;;;;4884388;28;99846;-77
2023/04/14 09:17:35;;;;;;;5.43;1.67;;;;;;;;;;4885722;28;98650;-75
2023/04/14 09:20:02;;;;;;;4.03;2.30;;;;;;;;;;4882803;28;100044;-74
2023/04/14 09:22:48;;;;;;;3.45;1.77;;;;;;;;;;4869604;28;99804;-74
2023/04/14 09:25:15;;;;;;;8.32;1.90;;;;;;;;;;4868417;28;100258;-75
2023/04/14 09:27:41;;;;;;;4.13;1.63;;;;;;;;;;4872526;28;100134;-76
2023/04/14 09:30:08;;;;;;;8.23;1.33;;;;;;;;;;4884202;28;100126;-77
2023/04/14 09:32:35;;;;;;;3.92;2.00;;;;;;;;;;4884926;28;100058;-77
2023/04/14 09:35:02;;;;;;;2.08;1.33;;;;;;;;;;4887897;28;100079;-76
2023/04/14 09:37:40;;;;;;;4.38;1.67;;;;;;;;;;4887328;28;99537;-76
2023/04/14 09:40:10;;;;;;;3.38;1.92;;;;;;;;;;4886101;28;100372;-76
2023/04/14 09:42:38;;;;;;;4.60;2.03;;;;;;;;;;4880221;28;100565;-77
2023/04/14 09:45:05;;;;;;;5.43;1.90;;;;;;;;;;4886913;28;100530;-76
2023/04/14 09:47:33;;;;;;;86.93;12.07;;;;;;;;;;4873162;28;99995;-75
2023/04/14 09:50:02;;;;;;;37.92;7.88;;;;;;;;;;4889939;28;99595;-77
2023/04/14 09:52:36;;;;;;;7.43;2.22;;;;;;;;;;4890690;28;100556;-77
2023/04/14 09:55:12;;;;;;;5.07;2.22;;;;;;;;;;4889472;28;100080;-77
2023/04/14 09:57:42;;;;;;;4.28;1.45;;;;;;;;;;4890712;28;98945;-76
2023/04/14 10:00:14;;;;;;;9.88;2.80;;;;;;;;;;4889963;28;100847;-75
2023/04/14 10:02:51;;;;;;;129.25;13.30;;;;;;;;;;4889245;28;98577;-76
2023/04/14 10:05:18;;;;;;;23.80;3.88;;;;;;;;;;4882549;28;100344;-77
2023/04/14 10:07:45;;;;;;;56.60;6.53;;;;;;;;;;4884542;28;100403;-76
2023/04/14 10:10:14;;;;;;;2.72;1.70;;;;;;;;;;4877948;28;100207;-77
2023/04/14 10:12:42;;;;;;;7.32;2.00;;;;;;;;;;4872432;28;100159;-77
2023/04/14 10:15:09;;;;;;;3.75;1.85;;;;;;;;;;4878052;28;99238;-77
2023/04/14 10:17:36;;;;;;;5.55;2.30;;;;;;;;;;4890397;28;100307;-77
2023/04/14 10:20:06;;;;;;;8.82;2.25;;;;;;;;;;4888038;28;99327;-75
2023/04/14 10:22:33;;;;;;;5.43;2.17;;;;;;;;;;4889513;28;100045;-75
2023/04/14 10:25:04;;;;;;;11.68;2.45;;;;;;;;;;4890620;28;100241;-75
2023/04/14 10:27:31;;;;;;;6.53;1.80;;;;;;;;;;4886635;28;100632;-75
2023/04/14 10:29:58;;;;;;;8.93;2.05;;;;;;;;;;4888219;28;100808;-77
2023/04/14 10:32:27;;;;;;;4.97;2.28;;;;;;;;;;4893365;28;100636;-77
2023/04/14 10:35:04;;;;;;;6.25;2.38;;;;;;;;;;4890422;28;100114;-78
2023/04/14 10:37:31;;;;;;;6.95;2.00;;;;;;;;;;4888124;28;101735;-77
2023/04/14 10:40:00;;;;;;;7.30;1.90;;;;;;;;;;4886836;28;101417;-77
2023/04/14 10:42:27;;;;;;;4.30;1.98;;;;;;;;;;4890263;28;99927;-76
2023/04/14 10:45:04;;;;;;;24.02;3.65;;;;;;;;;;4889177;28;101061;-76
2023/04/14 10:47:31;;;;;;;3.47;1.70;;;;;;;;;;4890068;28;99901;-76
2023/04/14 10:50:08;;;;;;;6.00;1.67;;;;;;;;;;4882913;28;100677;-77
2023/04/14 10:52:38;;;;;;;4.57;1.73;;;;;;;;;;4886671;28;101188;-76
2023/04/14 10:55:08;;;;;;;5.53;1.90;;;;;;;;;;4893075;28;99895;-76
2023/04/14 10:57:42;;;;;;;7.32;2.00;;;;;;;;;;4888092;28;100560;-77
2023/04/14 11:00:25;;;;;;;6.95;1.88;;;;;;;;;;4890249;28;99889;-76
2023/04/14 11:02:53;;;;;;;12.10;2.15;;;;;;;;;;4887843;28;100398;-76
2023/04/14 11:05:21;;;;;;;9.90;1.98;;;;;;;;;;4885225;28;99434;-77
2023/04/14 11:07:53;;;;;;;10.00;2.50;;;;;;;;;;4886533;28;99068;-75
2023/04/14 11:10:23;;;;;;;4.07;1.90;;;;;;;;;;4878173;28;100030;-77
2023/04/14 11:12:55;;;;;;;7.87;1.80;;;;;;;;;;4875667;28;100223;-77
2023/04/14 11:15:22;;;;;;;14.65;2.60;;;;;;;;;;4887868;28;100002;-77
2023/04/14 11:17:49;;;;;;;5.55;2.10;;;;;;;;;;4892351;28;100376;-76
2023/04/14 11:20:20;;;;;;;5.90;2.47;;;;;;;;;;4889482;28;101464;-76
2023/04/14 11:22:48;;;;;;;9.27;2.30;;;;;;;;;;4889077;28;100495;-76
2023/04/14 11:25:16;;;;;;;10.13;2.67;;;;;;;;;;4887785;28;100299;-77
2023/04/14 11:27:50;;;;;;;3.90;2.00;;;;;;;;;;4890265;28;100036;-77
2023/04/14 11:30:18;;;;;;;3.63;1.92;;;;;;;;;;4888699;28;99189;-76
2023/04/14 11:32:49;;;;;;;11.88;2.28;;;;;;;;;;4887618;28;102238;-76
2023/04/14 11:35:17;;;;;;;7.22;2.20;;;;;;;;;;4887670;28;100318;-76
2023/04/14 11:37:44;;;;;;;6.32;1.83;;;;;;;;;;4888478;28;100586;-76
2023/04/14 11:40:12;;;;;;;4.05;1.77;;;;;;;;;;4886644;28;100220;-76
2023/04/14 11:43:04;;;;;;;4.18;2.30;;;;;;;;;;4888052;28;99669;-76
2023/04/14 11:45:31;;;;;;;6.20;2.30;;;;;;;;;;4885479;28;100534;-76
2023/04/14 11:47:58;;;;;;;4.90;2.03;;;;;;;;;;4888502;28;99115;-77
2023/04/14 11:50:28;;;;;;;5.15;2.10;;;;;;;;;;4889395;28;99074;-76
2023/04/14 11:52:58;;;;;;;6.32;2.13;;;;;;;;;;4887798;28;99511;-76
2023/04/14 11:55:25;;;;;;;8.70;1.77;;;;;;;;;;4887693;28;101368;-76
2023/04/14 11:57:53;;;;;;;2.60;1.73;;;;;;;;;;4887193;28;101523;-76
2023/04/14 12:00:20;;;;;;;3.50;1.80;;;;;;;;;;4891245;28;100959;-76
2023/04/14 12:02:46;;;;;;;3.63;1.60;;;;;;;;;;4888180;28;99951;-76
2023/04/14 12:05:17;;;;;;;5.38;2.00;;;;;;;;;;4889076;28;100957;-77
2023/04/14 12:07:44;;;;;;;5.10;2.13;;;;;;;;;;4889252;28;100400;-77
2023/04/14 12:10:12;;;;;;;7.22;1.83;;;;;;;;;;4887310;28;100860;-77
2023/04/14 12:12:38;;;;;;;4.15;1.75;;;;;;;;;;4886926;28;100148;-77
2023/04/14 12:15:05;;;;;;;6.82;2.17;;;;;;;;;;4887350;28;100460;-76
2023/04/14 12:17:36;;;;;;;4.22;2.03;;;;;;;;;;4889360;28;99945;-76
2023/04/14 12:20:04;;;;;;;3.88;1.88;;;;;;;;;;4903940;28;100838;-75
2023/04/14 12:22:31;;;;;;;46.22;5.38;;;;;;;;;;4890128;28;100143;-78
2023/04/14 12:24:58;;;;;;;5.07;1.92;;;;;;;;;;4888376;28;101242;-75
2023/04/14 12:27:26;;;;;;;3.67;1.65;;;;;;;;;;4888917;28;100454;-76
2023/04/14 12:29:52;;;;;;;5.15;1.48;;;;;;;;;;4887248;28;99954;-77
2023/04/14 12:32:21;;;;;;;6.18;1.67;;;;;;;;;;4887593;28;100634;-77
2023/04/14 12:34:56;;;;;;;5.10;1.90;;;;;;;;;;4888113;28;100238;-76
2023/04/14 12:37:25;;;;;;;4.63;1.77;;;;;;;;;;4886318;28;99892;-76
2023/04/14 12:39:56;;;;;;;6.50;1.90;;;;;;;;;;4884972;28;100283;-78
2023/04/14 12:42:23;;;;;;;5.32;1.90;;;;;;;;;;4888622;28;100338;-77
2023/04/14 12:44:56;;;;;;;4.20;2.05;;;;;;;;;;4891852;28;99244;-77
2023/04/14 12:47:27;;;;;;;2.65;1.83;;;;;;;;;;4888101;28;100249;-77
2023/04/14 12:49:55;;;;;;;5.40;1.75;;;;;;;;;;4887224;28;99332;-79
2023/04/14 12:52:38;;;;;;;3.15;1.42;;;;;;;;;;4887825;28;100960;-77
2023/04/14 12:55:06;;;;;;;4.55;1.55;;;;;;;;;;4888040;28;101570;-76
2023/04/14 12:57:33;;;;;;;3.40;2.00;;;;;;;;;;4887184;28;100622;-77
2023/04/14 13:00:00;;;;;;;5.47;1.77;;;;;;;;;;4888357;28;99570;-77
2023/04/14 13:02:28;;;;;;;7.90;1.65;;;;;;;;;;4886306;28;100612;-78
2023/04/14 13:04:55;;;;;;;2.60;1.27;;;;;;;;;;4887484;28;99738;-77
2023/04/14 13:07:22;;;;;;;2.65;1.13;;;;;;;;;;4892031;28;98788;-77
2023/04/14 13:09:49;;;;;;;5.05;1.67;;;;;;;;;;4888002;28;99177;-76
2023/04/14 13:12:18;;;;;;;27.58;3.25;;;;;;;;;;4885457;28;100631;-76
2023/04/14 13:14:46;;;;;;;1.60;1.27;;;;;;;;;;4886906;28;100323;-77
2023/04/14 13:17:14;;;;;;;4.63;1.80;;;;;;;;;;4887749;28;101496;-78
2023/04/14 13:19:43;;;;;;;5.40;1.60;;;;;;;;;;4885189;28;101093;-78
2023/04/14 13:22:09;;;;;;;4.97;1.55;;;;;;;;;;4889160;28;99217;-78
2023/04/14 13:24:36;;;;;;;28.33;2.63;;;;;;;;;;4890572;28;99903;-77
2023/04/14 13:27:02;;;;;;;1.73;1.25;;;;;;;;;;4888703;28;100303;-77
2023/04/14 13:29:30;;;;;;;6.22;1.50;;;;;;;;;;4891502;28;100410;-77
2023/04/14 13:31:56;;;;;;;3.03;1.40;;;;;;;;;;4890982;28;99689;-77
2023/04/14 13:34:23;;;;;;;4.18;1.65;;;;;;;;;;4889036;28;100089;-77
2023/04/14 13:36:49;;;;;;;6.93;1.55;;;;;;;;;;4889273;28;99921;-78
2023/04/14 13:39:15;;;;;;;1.88;1.13;;;;;;;;;;4886666;28;100948;-78
2023/04/14 13:41:42;;;;;;;5.65;1.65;;;;;;;;;;4891193;28;99059;-77
2023/04/14 13:44:08;;;;;;;3.70;1.45;;;;;;;;;;4888488;28;99098;-77
2023/04/14 13:46:35;;;;;;;5.03;1.60;;;;;;;;;;4890160;28;99605;-77
2023/04/14 13:49:06;;;;;;;4.15;1.88;;;;;;;;;;4890112;28;99600;-77
2023/04/14 13:51:32;;;;;;;3.60;1.75;;;;;;;;;;4892077;28;100074;-77
2023/04/14 13:53:59;;;;;;;4.25;1.20;;;;;;;;;;4887061;28;100285;-77
2023/04/14 13:56:26;;;;;;;2.50;1.40;;;;;;;;;;4890825;28;100124;-78
2023/04/14 13:58:52;;;;;;;4.75;1.33;;;;;;;;;;4889035;28;100379;-77
2023/04/14 14:01:19;;;;;;;2.13;1.30;;;;;;;;;;4889949;28;99116;-76
2023/04/14 14:03:45;;;;;;;5.55;1.88;;;;;;;;;;4890568;28;99966;-76
2023/04/14 14:06:13;;;;;;;6.07;1.98;;;;;;;;;;4891162;28;99152;-78
2023/04/14 14:08:40;;;;;;;4.05;1.60;;;;;;;;;;4888184;28;102184;-78
2023/04/14 14:11:08;;;;;;;4.57;1.60;;;;;;;;;;4887574;28;100313;-78
2023/04/14 14:13:35;;;;;;;3.13;1.33;;;;;;;;;;4889759;28;100216;-78
2023/04/14 14:16:02;;;;;;;3.38;1.73;;;;;;;;;;4890279;28;98863;-78
2023/04/14 14:18:29;;;;;;;3.30;1.48;;;;;;;;;;4890250;28;99345;-78
2023/04/14 14:20:56;;;;;;;4.22;1.40;;;;;;;;;;4889461;28;100042;-78
2023/04/14 14:23:23;;;;;;;1.60;1.33;;;;;;;;;;4890370;28;99186;-78
2023/04/14 14:25:50;;;;;;;3.20;1.58;;;;;;;;;;4889326;28;100916;-81
2023/04/14 14:28:21;;;;;;;4.80;1.20;;;;;;;;;;4889120;28;99893;-78
2023/04/14 14:30:47;;;;;;;3.17;1.30;;;;;;;;;;4883959;28;100908;-78
2023/04/14 14:33:14;;;;;;;4.72;1.20;;;;;;;;;;4892430;28;99901;-78
2023/04/14 14:35:40;;;;;;;1.50;1.40;;;;;;;;;;4889851;28;99225;-79